Time;durP1;ratioP1;P1;durP2;ratioP2;P2;SDS_P1;SDS_P2;PMS_P1;PMS_P2;Temp;Humidity;BMP_temperature;BMP_pressure;BME280_temperature;BME280_humidity;BME280_pressure;Samples;Min_cycle;Max_cycle;Signal;HPM_P1;HPM_P2
2022/05/03 00:02:29;;;;;;;5.95;3.30;;;8.90;99.90;;;;;;5085070;28;20116;-60
2022/05/03 00:05:07;;;;;;;5.93;3.35;;;8.90;99.90;;;;;;5087568;28;20090;-61
2022/05/03 00:07:51;;;;;;;5.63;3.67;;;8.80;99.90;;;;;;5086621;28;20044;-61
2022/05/03 00:10:37;;;;;;;5.72;3.35;;;8.80;99.90;;;;;;5086957;28;20132;-61
2022/05/03 00:13:07;;;;;;;6.47;4.00;;;8.80;99.90;;;;;;5045678;28;20056;-63
2022/05/03 00:15:35;;;;;;;6.75;4.43;;;8.70;99.90;;;;;;5086654;28;20043;-61
2022/05/03 00:18:02;;;;;;;7.13;3.85;;;8.70;99.90;;;;;;5086604;28;20048;-61
2022/05/03 00:20:28;;;;;;;5.75;3.50;;;8.60;99.90;;;;;;5085400;28;20036;-62
2022/05/03 00:22:55;;;;;;;6.53;4.10;;;8.60;99.90;;;;;;5084545;28;20040;-61
2022/05/03 00:25:21;;;;;;;6.05;3.47;;;8.60;99.90;;;;;;5088317;28;20446;-61
2022/05/03 00:27:47;;;;;;;6.47;4.03;;;8.60;99.90;;;;;;5086432;28;20039;-62
2022/05/03 00:30:13;;;;;;;5.75;3.42;;;8.60;99.90;;;;;;5084093;28;20122;-61
2022/05/03 00:32:40;;;;;;;6.78;3.65;;;8.60;99.90;;;;;;5087358;28;20170;-62
2022/05/03 00:35:07;;;;;;;6.63;3.92;;;8.50;99.90;;;;;;5086568;28;20048;-61
2022/05/03 00:37:33;;;;;;;6.50;4.10;;;8.50;99.90;;;;;;5084650;28;20368;-61
2022/05/03 00:39:59;;;;;;;6.63;3.90;;;8.40;99.90;;;;;;5089359;28;20040;-60
2022/05/03 00:42:43;;;;;;;6.45;3.63;;;8.40;99.90;;;;;;5084793;28;20043;-62
2022/05/03 00:45:42;;;;;;;7.13;4.05;;;8.40;99.90;;;;;;5085508;28;20036;-61
2022/05/03 00:48:29;;;;;;;5.72;3.50;;;8.40;99.90;;;;;;5083634;28;20039;-61
2022/05/03 00:51:08;;;;;;;6.93;4.07;;;8.40;99.90;;;;;;5076188;28;20564;-61
2022/05/03 00:53:43;;;;;;;7.93;3.92;;;8.40;99.90;;;;;;5087439;28;20511;-61
2022/05/03 00:56:30;;;;;;;6.97;4.47;;;8.30;99.90;;;;;;5087065;28;20091;-61
2022/05/03 00:59:01;;;;;;;6.45;3.95;;;8.30;99.90;;;;;;5088473;28;20329;-61
2022/05/03 01:01:54;;;;;;;7.47;4.72;;;8.10;99.90;;;;;;5085874;28;20405;-61
2022/05/03 01:04:48;;;;;;;7.93;4.82;;;8.10;99.90;;;;;;5083791;28;20644;-61
2022/05/03 01:07:50;;;;;;;7.28;4.47;;;8.00;99.90;;;;;;5076692;28;20056;-62
2022/05/03 01:10:16;;;;;;;6.72;4.78;;;8.00;99.90;;;;;;5078705;28;20407;-61
2022/05/03 01:12:48;;;;;;;6.90;4.68;;;8.00;99.90;;;;;;5086477;28;20106;-61
2022/05/03 01:15:17;;;;;;;7.35;4.85;;;8.00;99.90;;;;;;5085211;28;20051;-61
2022/05/03 01:18:11;;;;;;;7.97;4.78;;;8.00;99.90;;;;;;5087353;28;20444;-61
2022/05/03 01:20:50;;;;;;;8.10;4.70;;;8.00;99.90;;;;;;5083004;28;20036;-62
2022/05/03 01:23:40;;;;;;;8.48;5.45;;;8.10;99.90;;;;;;5086499;28;20115;-61
2022/05/03 01:26:44;;;;;;;6.97;4.85;;;8.00;99.90;;;;;;5084270;28;20371;-62
2022/05/03 01:29:18;;;;;;;8.95;5.25;;;7.90;99.90;;;;;;5084127;28;20051;-62
2022/05/03 01:31:45;;;;;;;8.97;4.90;;;7.80;99.90;;;;;;5085485;28;20086;-62
2022/05/03 01:34:12;;;;;;;8.27;5.15;;;7.80;99.90;;;;;;5078517;28;20395;-61
2022/05/03 01:37:00;;;;;;;7.43;5.15;;;7.80;99.90;;;;;;5084228;28;20108;-62
2022/05/03 01:39:43;;;;;;;6.50;4.47;;;7.80;99.90;;;;;;5085775;28;20051;-61
2022/05/03 01:42:43;;;;;;;7.97;4.68;;;7.70;99.90;;;;;;5086022;28;20048;-61
2022/05/03 01:45:10;;;;;;;7.00;4.40;;;7.70;99.90;;;;;;5082280;28;20202;-62
2022/05/03 01:48:11;;;;;;;7.60;4.85;;;7.70;99.90;;;;;;5086396;28;20119;-61
2022/05/03 01:50:57;;;;;;;6.53;4.28;;;7.60;99.90;;;;;;5043230;28;20116;-63
2022/05/03 01:53:35;;;;;;;6.40;4.18;;;7.60;99.90;;;;;;5082993;28;20044;-61
2022/05/03 01:56:11;;;;;;;7.20;4.35;;;7.50;99.90;;;;;;5086623;28;20500;-62
2022/05/03 01:58:49;;;;;;;7.60;5.03;;;7.50;99.90;;;;;;5086531;28;20040;-61
2022/05/03 02:01:32;;;;;;;7.78;5.10;;;7.40;99.90;;;;;;5081838;28;20048;-61
2022/05/03 02:04:29;;;;;;;9.40;5.10;;;7.40;99.90;;;;;;5085692;28;20059;-61
2022/05/03 02:07:06;;;;;;;8.65;4.88;;;7.40;99.90;;;;;;5075374;28;20473;-62
2022/05/03 02:10:01;;;;;;;7.40;5.07;;;7.30;99.90;;;;;;5085472;28;20408;-63
2022/05/03 02:12:27;;;;;;;7.18;4.90;;;7.30;99.90;;;;;;5078586;28;20056;-61
2022/05/03 02:14:55;;;;;;;7.85;4.88;;;7.30;99.90;;;;;;5084857;28;20044;-63
2022/05/03 02:17:48;;;;;;;6.80;4.90;;;7.30;99.90;;;;;;5085230;28;20047;-61
2022/05/03 02:20:35;;;;;;;7.47;4.72;;;7.30;99.90;;;;;;5084682;28;20515;-62
2022/05/03 02:23:25;;;;;;;6.82;4.30;;;7.30;99.90;;;;;;5084767;28;20090;-62
2022/05/03 02:26:12;;;;;;;7.55;4.95;;;7.30;99.90;;;;;;5085443;28;20036;-62
2022/05/03 02:28:44;;;;;;;7.38;4.88;;;7.20;99.90;;;;;;5079724;28;20044;-61
2022/05/03 02:31:17;;;;;;;6.80;4.85;;;7.20;99.90;;;;;;5081249;28;20186;-61
2022/05/03 02:33:55;;;;;;;7.63;4.68;;;7.20;99.90;;;;;;5083650;28;20087;-61
2022/05/03 02:36:24;;;;;;;7.20;4.72;;;7.10;99.90;;;;;;5073886;28;20456;-62
2022/05/03 02:38:54;;;;;;;7.82;4.93;;;7.10;99.90;;;;;;5087069;28;20149;-63
2022/05/03 02:41:22;;;;;;;6.25;4.18;;;7.10;99.90;;;;;;5084157;28;20040;-61
2022/05/03 02:43:50;;;;;;;7.65;4.47;;;7.10;99.90;;;;;;5084514;28;20499;-63
2022/05/03 02:46:40;;;;;;;7.32;5.15;;;7.00;99.90;;;;;;5086423;28;20076;-63
2022/05/03 02:49:14;;;;;;;6.90;4.90;;;7.00;99.90;;;;;;5087213;28;20040;-62
2022/05/03 02:51:51;;;;;;;7.40;5.18;;;6.90;99.90;;;;;;5088872;28;20097;-62
2022/05/03 02:55:02;;;;;;;6.82;5.10;;;6.90;99.90;;;;;;5087041;28;20071;-63
2022/05/03 02:57:38;;;;;;;8.45;5.60;;;6.90;99.90;;;;;;5078101;28;20044;-62
2022/05/03 03:03:10;;;;;;;7.90;5.28;;;6.80;99.90;;;;;;5088727;28;20051;-62
2022/05/03 03:05:42;;;;;;;8.00;5.63;;;6.80;99.90;;;;;;5085232;28;20036;-63
2022/05/03 03:08:10;;;;;;;7.60;5.32;;;6.80;99.90;;;;;;5088754;28;20492;-63
2022/05/03 03:11:00;;;;;;;8.63;5.07;;;6.80;99.90;;;;;;5087500;28;20111;-62
2022/05/03 03:13:50;;;;;;;7.78;5.63;;;6.70;99.90;;;;;;5085726;28;20127;-63
2022/05/03 03:16:30;;;;;;;7.78;5.28;;;6.70;99.90;;;;;;5088007;28;20055;-63
2022/05/03 03:18:58;;;;;;;7.10;4.88;;;6.70;99.90;;;;;;5086680;28;20158;-62
2022/05/03 03:21:30;;;;;;;8.45;5.20;;;6.60;99.90;;;;;;5085996;28;20046;-62
2022/05/03 03:23:58;;;;;;;8.00;5.30;;;6.60;99.90;;;;;;5087441;28;20040;-62
2022/05/03 03:26:28;;;;;;;8.73;5.40;;;6.60;99.90;;;;;;5087502;28;20084;-61
2022/05/03 03:28:58;;;;;;;7.18;5.00;;;6.50;99.90;;;;;;5085620;28;20428;-62
2022/05/03 03:31:25;;;;;;;8.32;5.50;;;6.50;99.90;;;;;;5085901;28;20055;-61
2022/05/03 03:33:53;;;;;;;8.57;5.03;;;6.50;99.90;;;;;;5088948;28;20377;-62
2022/05/03 03:36:20;;;;;;;7.65;5.25;;;6.40;99.90;;;;;;5085897;28;20040;-61
2022/05/03 03:38:48;;;;;;;8.25;5.85;;;6.40;99.90;;;;;;5086654;28;20054;-62
2022/05/03 03:41:14;;;;;;;7.05;5.07;;;6.40;99.90;;;;;;5086337;28;20130;-62
2022/05/03 03:43:40;;;;;;;6.75;4.93;;;6.40;99.90;;;;;;5089319;28;20114;-62
2022/05/03 03:46:06;;;;;;;6.30;4.45;;;6.40;99.90;;;;;;5085302;28;20082;-61
2022/05/03 03:48:33;;;;;;;5.70;3.90;;;6.40;99.90;;;;;;5087250;28;20048;-62
2022/05/03 03:51:00;;;;;;;7.00;4.43;;;6.30;99.90;;;;;;5086406;28;20040;-62
2022/05/03 03:53:26;;;;;;;6.05;4.05;;;6.40;99.90;;;;;;5086786;28;20087;-62
2022/05/03 03:55:52;;;;;;;5.68;3.78;;;6.30;99.90;;;;;;5085311;28;20055;-62
2022/05/03 03:58:18;;;;;;;6.93;3.97;;;6.30;99.90;;;;;;5089173;28;20107;-62
2022/05/03 04:00:45;;;;;;;5.85;4.00;;;6.30;99.90;;;;;;5086222;28;20190;-61
2022/05/03 04:03:11;;;;;;;6.60;4.35;;;6.30;99.90;;;;;;5088565;28;20051;-61
2022/05/03 04:05:38;;;;;;;5.95;4.10;;;6.20;99.90;;;;;;5084734;28;20407;-62
2022/05/03 04:08:04;;;;;;;6.15;4.30;;;6.20;99.90;;;;;;5085578;28;20139;-61
2022/05/03 04:10:29;;;;;;;7.45;4.43;;;6.20;99.90;;;;;;5086257;28;20187;-61
2022/05/03 04:12:55;;;;;;;6.25;4.15;;;6.20;99.90;;;;;;5087616;28;20044;-61
2022/05/03 04:15:21;;;;;;;6.18;4.43;;;6.20;99.90;;;;;;5084726;28;20047;-63
2022/05/03 04:17:46;;;;;;;6.63;4.38;;;6.20;99.90;;;;;;5086111;28;20065;-61
2022/05/03 04:20:15;;;;;;;5.80;4.15;;;6.20;99.90;;;;;;5088164;28;20044;-62
2022/05/03 04:22:40;;;;;;;7.60;5.18;;;6.20;99.90;;;;;;5087970;28;20486;-61
2022/05/03 04:25:06;;;;;;;8.75;5.63;;;6.20;99.90;;;;;;5088215;28;20088;-61
2022/05/03 04:27:32;;;;;;;8.30;5.82;;;6.20;99.90;;;;;;5087980;28;20035;-63
2022/05/03 04:29:59;;;;;;;8.38;5.90;;;6.20;99.90;;;;;;5087724;28;20103;-62
2022/05/03 04:32:29;;;;;;;9.38;5.97;;;6.20;99.90;;;;;;5081701;28;20483;-62
2022/05/03 04:34:55;;;;;;;9.05;5.88;;;6.20;99.90;;;;;;5084082;28;20097;-62
2022/05/03 04:37:20;;;;;;;8.80;5.88;;;6.30;99.90;;;;;;5076742;28;20040;-62
2022/05/03 04:39:46;;;;;;;8.43;6.30;;;6.30;99.90;;;;;;5089406;28;20426;-61
2022/05/03 04:42:12;;;;;;;8.38;6.07;;;6.30;99.90;;;;;;5086727;28;20047;-62
2022/05/03 04:44:37;;;;;;;8.80;5.63;;;6.40;99.90;;;;;;5088093;28;20048;-61
2022/05/03 04:47:03;;;;;;;8.55;6.05;;;6.50;99.90;;;;;;5086861;28;20052;-62
2022/05/03 04:49:29;;;;;;;8.65;6.13;;;6.50;99.90;;;;;;5085993;28;20835;-61
2022/05/03 04:51:55;;;;;;;6.75;5.25;;;6.60;99.90;;;;;;5079145;28;20066;-62
2022/05/03 04:54:20;;;;;;;9.98;6.47;;;6.60;99.90;;;;;;5088430;28;20046;-62
2022/05/03 04:56:50;;;;;;;9.70;6.45;;;6.70;99.90;;;;;;5086837;28;20104;-62
2022/05/03 04:59:15;;;;;;;10.32;6.15;;;6.80;99.90;;;;;;5074643;28;20432;-62
2022/05/03 05:01:41;;;;;;;8.70;6.32;;;6.90;99.90;;;;;;5074855;28;20040;-62
2022/05/03 05:04:06;;;;;;;10.02;6.47;;;7.00;99.90;;;;;;5079505;28;20055;-62
2022/05/03 05:06:32;;;;;;;9.10;6.45;;;7.10;99.90;;;;;;5078443;28;20143;-62
2022/05/03 05:08:57;;;;;;;8.57;6.60;;;7.30;99.90;;;;;;5083843;28;20471;-62
2022/05/03 05:11:23;;;;;;;9.85;6.43;;;7.40;99.90;;;;;;5081296;28;20051;-62
2022/05/03 05:13:49;;;;;;;7.57;6.00;;;7.60;99.90;;;;;;5087281;28;20680;-62
2022/05/03 05:16:14;;;;;;;8.68;6.25;;;7.70;99.90;;;;;;5087366;28;20407;-62
2022/05/03 05:18:40;;;;;;;7.82;6.00;;;7.80;99.90;;;;;;5084683;28;20172;-62
2022/05/03 05:21:05;;;;;;;9.35;6.13;;;7.90;99.90;;;;;;5084627;28;20076;-63
2022/05/03 05:23:31;;;;;;;8.80;6.75;;;8.20;99.90;;;;;;5088807;28;20040;-61
2022/05/03 05:25:56;;;;;;;9.98;6.88;;;8.40;99.90;;;;;;5079141;28;20037;-62
2022/05/03 05:28:23;;;;;;;9.90;7.40;;;8.50;99.90;;;;;;5078680;28;20051;-62
2022/05/03 05:30:51;;;;;;;10.02;7.32;;;8.70;99.90;;;;;;5072675;28;20036;-63
2022/05/03 05:33:17;;;;;;;10.10;7.60;;;8.80;99.90;;;;;;5070614;28;20491;-61
2022/05/03 05:35:43;;;;;;;10.07;7.55;;;8.90;99.90;;;;;;5077306;28;20051;-63
2022/05/03 05:38:13;;;;;;;10.13;7.78;;;9.00;99.90;;;;;;5082972;28;20372;-62
2022/05/03 05:40:39;;;;;;;12.45;7.85;;;9.10;99.90;;;;;;5079798;28;20486;-63
2022/05/03 05:43:04;;;;;;;11.05;8.30;;;9.20;99.90;;;;;;5078880;28;20036;-62
2022/05/03 05:45:30;;;;;;;11.30;8.50;;;9.30;99.90;;;;;;5087326;28;20044;-61
2022/05/03 05:47:56;;;;;;;12.25;8.70;;;9.30;99.90;;;;;;5087669;28;20036;-63
2022/05/03 05:50:25;;;;;;;11.40;8.48;;;9.50;99.90;;;;;;5087064;28;20071;-63
2022/05/03 05:55:36;;;;;;;11.85;8.48;;;9.80;99.90;;;;;;5082696;28;20497;-62
2022/05/03 05:58:03;;;;;;;11.85;9.32;;;10.00;99.90;;;;;;5078881;28;20072;-62
2022/05/03 06:00:29;;;;;;;11.85;8.43;;;10.10;99.90;;;;;;5088523;28;20862;-62
2022/05/03 06:02:54;;;;;;;12.85;9.77;;;10.40;99.90;;;;;;5079672;28;20058;-62
2022/05/03 06:05:20;;;;;;;13.85;9.45;;;10.60;99.90;;;;;;5082687;28;20598;-63
2022/05/03 06:07:46;;;;;;;12.38;8.82;;;10.80;99.90;;;;;;5065617;28;20139;-61
2022/05/03 06:10:11;;;;;;;14.60;9.43;;;11.00;99.90;;;;;;5073343;28;20065;-62
2022/05/03 06:12:37;;;;;;;13.23;9.90;;;11.20;99.90;;;;;;5071989;28;20040;-62
2022/05/03 06:15:03;;;;;;;13.35;10.63;;;11.30;99.90;;;;;;5075580;28;20095;-64
2022/05/03 06:17:28;;;;;;;16.25;12.05;;;11.40;99.90;;;;;;5080519;28;20371;-61
2022/05/03 06:19:54;;;;;;;20.58;14.48;;;11.40;99.90;;;;;;5079416;28;20604;-62
2022/05/03 06:22:20;;;;;;;21.27;16.45;;;11.30;99.90;;;;;;5081649;28;20116;-61
2022/05/03 06:24:47;;;;;;;19.40;14.63;;;11.20;99.90;;;;;;5085915;28;20051;-61
2022/05/03 06:27:16;;;;;;;21.80;16.42;;;11.20;99.90;;;;;;5082283;28;20056;-61
2022/05/03 06:29:42;;;;;;;22.90;17.25;;;11.20;99.90;;;;;;5085224;28;20495;-61
2022/05/03 06:32:10;;;;;;;20.65;15.15;;;11.10;99.90;;;;;;5083903;28;20067;-62
2022/05/03 06:34:37;;;;;;;22.65;16.65;;;11.10;99.90;;;;;;5084650;28;20051;-64
2022/05/03 06:37:03;;;;;;;21.60;15.75;;;11.10;99.90;;;;;;5083174;28;20032;-63
2022/05/03 06:39:29;;;;;;;21.50;15.77;;;11.10;99.90;;;;;;5083089;28;20833;-62
2022/05/03 06:41:55;;;;;;;21.90;15.43;;;11.00;99.90;;;;;;5080002;28;20147;-61
2022/05/03 06:44:20;;;;;;;20.65;15.38;;;11.00;99.90;;;;;;5084605;28;20052;-62
2022/05/03 06:46:46;;;;;;;21.70;15.45;;;10.90;99.90;;;;;;5081375;28;20171;-62
2022/05/03 06:49:11;;;;;;;18.65;13.75;;;10.90;99.90;;;;;;5081610;28;20426;-63
2022/05/03 06:51:38;;;;;;;22.75;15.60;;;10.90;99.90;;;;;;5080719;28;20460;-61
2022/05/03 06:54:03;;;;;;;29.23;19.50;;;10.80;99.90;;;;;;5083082;28;20048;-63
2022/05/03 06:56:35;;;;;;;24.60;17.80;;;10.80;99.90;;;;;;5082572;28;20098;-64
2022/05/03 06:59:04;;;;;;;27.30;17.88;;;10.70;99.90;;;;;;5084294;28;20048;-62
2022/05/03 07:01:29;;;;;;;25.52;17.17;;;10.70;99.90;;;;;;5080895;28;20904;-62
2022/05/03 07:03:55;;;;;;;27.08;17.48;;;10.70;99.90;;;;;;5081028;28;20522;-63
2022/05/03 07:06:21;;;;;;;34.35;21.35;;;10.70;99.90;;;;;;5081196;28;20130;-62
2022/05/03 07:08:47;;;;;;;32.10;20.90;;;10.70;99.90;;;;;;5083860;28;20094;-62
2022/05/03 07:11:14;;;;;;;33.88;21.33;;;10.70;99.90;;;;;;5079093;28;20187;-62
2022/05/03 07:13:40;;;;;;;36.58;21.75;;;10.70;99.90;;;;;;5084429;28;20048;-63
2022/05/03 07:16:06;;;;;;;31.15;20.40;;;10.70;99.90;;;;;;5080972;28;20106;-62
2022/05/03 07:24:00;;;;;;;37.50;22.58;;;10.90;99.90;;;;;;5085042;28;20052;-64
2022/05/03 07:26:25;;;;;;;37.05;23.15;;;10.90;99.90;;;;;;5082526;28;20036;-62
2022/05/03 07:28:51;;;;;;;32.15;21.00;;;10.90;99.90;;;;;;5085762;28;21084;-62
2022/05/03 07:31:17;;;;;;;38.72;23.92;;;10.90;99.90;;;;;;5081661;28;20452;-63
2022/05/03 07:33:43;;;;;;;38.47;23.15;;;11.00;99.90;;;;;;5083660;28;20187;-63
2022/05/03 07:36:10;;;;;;;39.35;23.13;;;11.10;99.90;;;;;;5081720;28;20265;-63
2022/05/03 07:38:36;;;;;;;41.53;24.27;;;11.10;99.90;;;;;;5084258;28;20529;-62
2022/05/03 07:41:02;;;;;;;39.88;23.80;;;11.10;99.90;;;;;;5080847;28;20486;-64
2022/05/03 07:43:28;;;;;;;46.35;25.05;;;11.20;99.90;;;;;;5083235;28;20052;-65
2022/05/03 07:45:54;;;;;;;47.45;26.80;;;11.30;99.90;;;;;;5081828;28;20043;-62
2022/05/03 07:48:21;;;;;;;44.60;25.45;;;11.30;99.90;;;;;;5083601;28;20063;-62
2022/05/03 07:50:47;;;;;;;49.88;26.67;;;11.30;99.90;;;;;;5079416;28;20134;-62
2022/05/03 07:53:13;;;;;;;53.88;28.33;;;11.40;99.90;;;;;;5081318;28;20135;-62
2022/05/03 07:55:38;;;;;;;60.85;29.75;;;11.40;99.90;;;;;;5080389;28;20245;-63
2022/05/03 07:58:04;;;;;;;57.70;29.13;;;11.40;99.90;;;;;;5083898;28;20052;-63
2022/05/03 08:00:30;;;;;;;57.05;29.63;;;11.40;99.90;;;;;;5083396;28;20055;-62
2022/05/03 08:02:55;;;;;;;60.33;30.70;;;11.50;99.90;;;;;;5078796;28;20391;-62
2022/05/03 08:05:21;;;;;;;64.15;30.95;;;11.40;99.90;;;;;;5082548;28;20097;-64
2022/05/03 08:07:47;;;;;;;62.33;29.25;;;11.40;99.90;;;;;;5079573;28;20131;-62
2022/05/03 08:10:13;;;;;;;59.58;29.30;;;11.40;99.90;;;;;;5082011;28;20066;-61
2022/05/03 08:12:39;;;;;;;74.85;31.13;;;11.40;99.90;;;;;;5081262;28;20039;-62
2022/05/03 08:15:05;;;;;;;74.78;31.33;;;11.30;99.90;;;;;;5078512;28;20063;-60
2022/05/03 08:17:31;;;;;;;68.82;32.30;;;11.30;99.90;;;;;;5082958;28;20142;-60
2022/05/03 08:19:57;;;;;;;70.22;30.25;;;11.20;99.90;;;;;;5080280;28;20048;-61
2022/05/03 08:22:22;;;;;;;56.53;28.67;;;11.20;99.90;;;;;;5081445;28;20347;-61
2022/05/03 08:24:48;;;;;;;67.45;31.35;;;11.20;99.90;;;;;;5084737;28;20111;-61
2022/05/03 08:27:14;;;;;;;61.58;30.00;;;11.20;99.90;;;;;;5080833;28;20144;-60
2022/05/03 08:29:39;;;;;;;58.63;28.60;;;11.10;99.90;;;;;;5083517;28;20051;-62
2022/05/03 08:32:05;;;;;;;60.15;28.67;;;11.10;99.90;;;;;;5081607;28;20418;-60
2022/05/03 08:34:31;;;;;;;58.70;30.00;;;11.10;99.90;;;;;;5080347;28;20121;-61
2022/05/03 08:42:27;;;;;;;44.10;22.77;;;11.10;99.90;;;;;;5080621;28;20146;-60
2022/05/03 08:44:56;;;;;;;33.67;20.80;;;11.10;99.90;;;;;;5080754;28;20075;-60
2022/05/03 08:47:25;;;;;;;33.75;19.50;;;11.10;99.90;;;;;;5080729;28;20784;-61
2022/05/03 08:50:01;;;;;;;29.27;18.48;;;11.10;99.90;;;;;;5080218;28;20073;-61
2022/05/03 08:52:28;;;;;;;29.23;18.13;;;11.10;99.90;;;;;;5081650;28;20097;-61
2022/05/03 08:54:56;;;;;;;30.40;18.25;;;11.00;99.90;;;;;;5080059;28;20075;-62
2022/05/03 08:57:22;;;;;;;29.60;17.80;;;11.00;99.90;;;;;;5079610;28;20452;-60
2022/05/03 08:59:49;;;;;;;26.67;17.30;;;11.00;99.90;;;;;;5083166;28;20044;-61
2022/05/03 09:02:15;;;;;;;25.98;15.77;;;11.10;99.90;;;;;;5080469;28;20051;-61
2022/05/03 09:04:40;;;;;;;28.27;16.65;;;11.20;99.90;;;;;;5081578;28;20032;-60
2022/05/03 09:07:25;;;;;;;25.90;15.38;;;11.20;99.90;;;;;;5077359;28;20036;-63
2022/05/03 09:09:52;;;;;;;24.38;15.15;;;11.30;99.90;;;;;;5080597;28;20062;-61
2022/05/03 09:12:31;;;;;;;27.40;14.98;;;11.40;99.90;;;;;;5082230;28;20048;-60
2022/05/03 09:15:01;;;;;;;21.33;13.30;;;11.60;99.90;;;;;;5081553;28;20079;-61
2022/05/03 09:17:44;;;;;;;20.85;13.02;;;11.70;99.90;;;;;;5082078;28;20044;-61
2022/05/03 09:26:22;;;;;;;20.90;12.75;;;12.00;99.90;;;;;;5079959;28;20055;-61
2022/05/03 09:28:59;;;;;;;19.98;12.65;;;12.00;99.90;;;;;;5083116;28;20040;-62
2022/05/03 09:31:36;;;;;;;20.50;12.55;;;12.00;99.90;;;;;;5081151;28;20197;-61
2022/05/03 09:34:17;;;;;;;20.17;12.07;;;11.90;99.90;;;;;;5080595;28;20179;-62
2022/05/03 09:36:44;;;;;;;17.55;11.23;;;11.90;99.90;;;;;;5079951;28;20048;-62
2022/05/03 09:39:30;;;;;;;17.85;11.35;;;11.90;99.90;;;;;;5080157;28;20512;-61
2022/05/03 09:42:07;;;;;;;17.45;10.38;;;11.70;99.90;;;;;;5077663;28;20052;-61
2022/05/03 09:44:37;;;;;;;19.35;10.30;;;11.60;99.90;;;;;;5082470;28;20456;-61
2022/05/03 09:47:09;;;;;;;16.48;8.88;;;11.60;99.90;;;;;;5085717;28;20052;-62
2022/05/03 09:49:36;;;;;;;15.07;7.90;;;11.70;99.90;;;;;;5085099;28;20472;-60
2022/05/03 09:52:03;;;;;;;13.13;7.97;;;11.60;99.90;;;;;;5081191;28;20101;-61
2022/05/03 09:54:46;;;;;;;15.07;7.80;;;11.60;99.90;;;;;;5086862;28;20166;-60
2022/05/03 09:57:22;;;;;;;11.63;7.10;;;11.50;99.90;;;;;;5084994;28;20499;-61
2022/05/03 09:59:52;;;;;;;13.07;7.43;;;11.50;99.90;;;;;;5074345;28;20194;-61
2022/05/03 10:02:20;;;;;;;14.05;7.80;;;11.40;99.90;;;;;;5079404;28;20479;-60
2022/05/03 10:04:47;;;;;;;12.13;6.90;;;11.40;99.90;;;;;;5082265;28;20051;-60
2022/05/03 10:07:13;;;;;;;11.60;7.07;;;11.50;99.90;;;;;;5077594;28;20051;-62
2022/05/03 10:09:41;;;;;;;13.10;6.15;;;11.60;99.90;;;;;;5081140;28;20464;-60
2022/05/03 10:12:11;;;;;;;13.48;7.03;;;11.60;99.90;;;;;;5080251;28;20154;-60
2022/05/03 10:14:37;;;;;;;12.95;6.90;;;11.60;99.90;;;;;;5078343;28;20052;-60
2022/05/03 10:22:39;;;;;;;14.93;7.05;;;11.50;99.90;;;;;;5077089;28;20052;-61
2022/05/03 10:25:06;;;;;;;13.65;6.55;;;11.50;99.90;;;;;;5082259;28;20058;-62
2022/05/03 10:27:54;;;;;;;14.95;6.95;;;11.50;99.90;;;;;;5079983;28;20495;-62
2022/05/03 10:30:22;;;;;;;13.13;6.88;;;11.60;99.90;;;;;;5079473;28;20029;-61
2022/05/03 10:33:19;;;;;;;19.80;7.60;;;11.60;99.90;;;;;;5080696;28;20036;-62
2022/05/03 10:35:48;;;;;;;15.57;7.18;;;11.70;99.90;;;;;;5079798;28;20131;-63
2022/05/03 10:38:14;;;;;;;14.68;6.63;;;11.70;99.90;;;;;;5077994;28;20188;-62
2022/05/03 10:40:47;;;;;;;18.48;7.53;;;11.70;99.90;;;;;;5080453;28;20597;-61
2022/05/03 10:43:27;;;;;;;20.05;8.02;;;11.70;99.90;;;;;;5080866;28;20084;-62
2022/05/03 10:45:58;;;;;;;19.02;7.32;;;11.80;99.90;;;;;;5081792;28;20581;-62
2022/05/03 10:48:30;;;;;;;14.77;7.53;;;12.00;99.90;;;;;;5077530;28;20069;-61
2022/05/03 10:51:00;;;;;;;19.77;8.27;;;12.10;99.90;;;;;;5079370;28;20120;-61
2022/05/03 10:53:30;;;;;;;19.38;8.50;;;12.20;99.90;;;;;;5074294;28;20047;-61
2022/05/03 10:56:18;;;;;;;15.70;7.03;;;12.10;99.90;;;;;;5077756;28;20036;-63
2022/05/03 10:59:06;;;;;;;19.95;7.78;;;12.00;99.90;;;;;;5082085;28;20071;-62
2022/05/03 11:01:32;;;;;;;21.45;8.02;;;12.00;99.90;;;;;;5075834;28;20060;-62
2022/05/03 11:03:58;;;;;;;18.63;7.50;;;11.90;99.90;;;;;;5080233;28;20054;-62
2022/05/03 11:06:26;;;;;;;21.58;7.47;;;12.00;99.90;;;;;;5081051;28;20402;-61
2022/05/03 11:08:58;;;;;;;21.58;7.20;;;11.90;99.90;;;;;;5081703;28;20119;-61
2022/05/03 11:11:46;;;;;;;17.00;8.13;;;11.90;99.90;;;;;;5080396;28;20552;-62
2022/05/03 11:14:24;;;;;;;22.25;7.43;;;12.00;99.90;;;;;;5083982;28;20139;-62
2022/05/03 11:17:02;;;;;;;17.58;7.25;;;12.00;99.90;;;;;;5082873;28;20117;-63
2022/05/03 11:19:29;;;;;;;16.17;7.07;;;11.90;99.90;;;;;;5084564;28;20157;-62
2022/05/03 11:21:55;;;;;;;17.50;7.18;;;12.10;99.90;;;;;;5085126;28;20388;-63
2022/05/03 11:24:26;;;;;;;19.00;7.63;;;12.00;99.90;;;;;;5083659;28;20985;-62
2022/05/03 11:27:11;;;;;;;16.15;7.40;;;12.00;99.90;;;;;;5084828;28;20058;-61
2022/05/03 11:29:44;;;;;;;15.70;6.63;;;12.10;99.90;;;;;;5083142;28;20490;-61
2022/05/03 11:32:10;;;;;;;17.83;6.50;;;12.00;99.90;;;;;;5082379;28;20436;-62
2022/05/03 11:34:37;;;;;;;16.90;6.43;;;12.00;99.90;;;;;;5084003;28;20123;-61
2022/05/03 11:37:04;;;;;;;16.63;6.15;;;12.10;99.90;;;;;;5080397;28;20155;-63
2022/05/03 11:39:29;;;;;;;15.25;5.80;;;12.20;99.90;;;;;;5082070;28;20047;-62
2022/05/03 11:41:55;;;;;;;13.40;5.93;;;12.20;99.90;;;;;;5081469;28;20368;-62
2022/05/03 11:44:21;;;;;;;15.20;6.35;;;12.30;99.90;;;;;;5078449;28;20106;-61
2022/05/03 11:46:48;;;;;;;15.18;6.30;;;12.50;99.90;;;;;;5077838;28;20445;-63
2022/05/03 11:49:16;;;;;;;12.27;6.03;;;12.60;99.90;;;;;;5080144;28;20072;-61
2022/05/03 11:57:47;;;;;;;13.32;5.35;;;13.30;99.90;;;;;;5083325;28;20047;-61
2022/05/03 12:00:13;;;;;;;12.93;5.53;;;13.70;99.90;;;;;;5079273;28;20044;-62
2022/05/03 12:02:42;;;;;;;11.52;5.07;;;13.90;99.90;;;;;;5083492;28;20128;-62
2022/05/03 12:05:08;;;;;;;11.18;4.82;;;14.20;99.90;;;;;;5078094;28;20051;-62
2022/05/03 12:07:53;;;;;;;15.68;4.75;;;14.40;99.90;;;;;;5078368;28;20138;-63
2022/05/03 12:10:38;;;;;;;11.10;5.03;;;14.50;99.90;;;;;;5081301;28;20326;-63
2022/05/03 12:13:03;;;;;;;11.57;5.10;;;14.60;99.90;;;;;;5080699;28;20236;-62
2022/05/03 12:15:30;;;;;;;13.20;5.13;;;14.10;99.90;;;;;;5081984;28;20172;-63
2022/05/03 12:18:11;;;;;;;15.50;5.25;;;14.40;99.90;;;;;;5080306;28;20043;-62
2022/05/03 12:20:52;;;;;;;12.32;5.00;;;14.40;99.90;;;;;;5079073;28;20040;-62
2022/05/03 12:23:25;;;;;;;13.25;4.18;;;14.30;99.90;;;;;;5080003;28;20048;-62
2022/05/03 12:25:52;;;;;;;10.38;4.38;;;14.40;99.90;;;;;;5079098;28;20044;-62
2022/05/03 12:28:18;;;;;;;10.95;4.00;;;14.40;99.90;;;;;;5080138;28;20102;-61
2022/05/03 12:30:53;;;;;;;11.82;4.25;;;14.50;99.90;;;;;;5080862;28;20134;-61
2022/05/03 12:33:19;;;;;;;11.00;4.20;;;14.50;99.90;;;;;;5080391;28;20083;-64
2022/05/03 12:35:47;;;;;;;14.80;4.35;;;14.60;99.90;;;;;;5079143;28;20175;-62
2022/05/03 12:38:18;;;;;;;11.57;4.00;;;14.50;99.90;;;;;;5080342;28;20408;-62
2022/05/03 12:40:50;;;;;;;13.50;3.88;;;14.60;99.90;;;;;;5082385;28;20040;-61
2022/05/03 12:43:28;;;;;;;13.32;4.15;;;14.50;99.90;;;;;;5081818;28;20051;-62
2022/05/03 12:46:02;;;;;;;13.55;4.50;;;14.50;99.90;;;;;;5081298;28;20132;-62
2022/05/03 12:48:29;;;;;;;15.05;4.68;;;14.60;99.90;;;;;;5080956;28;20050;-63
2022/05/03 12:50:55;;;;;;;12.02;4.05;;;14.60;99.90;;;;;;5079333;28;20104;-61
2022/05/03 12:53:25;;;;;;;10.70;3.88;;;14.70;99.90;;;;;;5080851;28;20476;-62
2022/05/03 12:55:52;;;;;;;10.73;3.97;;;14.70;99.90;;;;;;5078510;28;20055;-63
2022/05/03 12:58:25;;;;;;;9.95;3.38;;;14.90;99.90;;;;;;5080210;28;20091;-62
2022/05/03 13:00:55;;;;;;;8.32;3.38;;;15.00;99.90;;;;;;5077599;28;20032;-64
2022/05/03 13:03:21;;;;;;;9.38;3.33;;;15.10;99.70;;;;;;5076975;28;20483;-62
2022/05/03 13:05:48;;;;;;;9.75;3.10;;;15.10;98.90;;;;;;5076872;28;20058;-62
2022/05/03 13:08:15;;;;;;;9.73;3.22;;;15.20;99.10;;;;;;5083631;28;20041;-63
2022/05/03 13:10:40;;;;;;;7.22;3.00;;;15.10;98.30;;;;;;5082930;28;20040;-64
2022/05/03 13:13:06;;;;;;;8.75;3.00;;;15.20;98.10;;;;;;5079809;28;20418;-62
2022/05/03 13:15:32;;;;;;;6.68;3.22;;;15.10;97.80;;;;;;5080920;28;20039;-62
2022/05/03 13:17:59;;;;;;;8.13;3.00;;;15.20;98.10;;;;;;5081940;28;20198;-62
2022/05/03 13:20:25;;;;;;;7.43;2.75;;;15.10;97.40;;;;;;5081677;28;20648;-63
2022/05/03 13:22:50;;;;;;;10.23;2.97;;;15.10;97.00;;;;;;5079037;28;20421;-62
2022/05/03 13:25:16;;;;;;;10.90;3.30;;;15.30;96.90;;;;;;5078060;28;20120;-62
2022/05/03 13:27:41;;;;;;;10.85;2.95;;;15.50;96.90;;;;;;5082269;28;20045;-62
2022/05/03 13:30:07;;;;;;;8.32;2.75;;;15.50;92.90;;;;;;5081028;28;20051;-62
2022/05/03 13:32:33;;;;;;;8.15;3.20;;;15.30;93.70;;;;;;5079727;28;20081;-62
2022/05/03 13:34:59;;;;;;;11.52;3.10;;;15.20;93.40;;;;;;5078217;28;20557;-62
2022/05/03 13:42:54;;;;;;;8.32;2.75;;;15.50;93.80;;;;;;5080047;28;20149;-61